Time;durP1;ratioP1;P1;durP2;ratioP2;P2;SDS_P1;SDS_P2;PMS_P1;PMS_P2;Temp;Humidity;BMP_temperature;BMP_pressure;BME280_temperature;BME280_humidity;BME280_pressure;Samples;Min_cycle;Max_cycle;Signal;HPM_P1;HPM_P2
2023/05/04 00:00:09;;;;;;;41.45;38.92;;;;;;;20.56;38.70;102132.25;4995028;28;20039;-69
2023/05/04 00:02:34;;;;;;;43.25;40.65;;;;;;;20.54;38.43;102134.44;4977763;28;20113;-69
2023/05/04 00:05:00;;;;;;;39.85;37.47;;;;;;;20.51;38.89;102126.72;4995153;28;20117;-69
2023/05/04 00:07:26;;;;;;;40.25;37.90;;;;;;;20.48;38.88;102122.63;4994702;28;20480;-69
2023/05/04 00:09:51;;;;;;;41.70;39.47;;;;;;;20.45;38.56;102117.69;4995036;28;20030;-69
2023/05/04 00:12:17;;;;;;;39.65;37.20;;;;;;;20.42;38.57;102104.53;4977975;28;20034;-69
2023/05/04 00:14:42;;;;;;;44.53;42.00;;;;;;;20.41;38.65;102102.03;4994986;28;20436;-69
2023/05/04 00:17:08;;;;;;;42.17;39.65;;;;;;;20.39;38.59;102102.34;4994742;28;20030;-70
2023/05/04 00:19:39;;;;;;;41.10;38.65;;;;;;;20.36;38.92;102099.31;4994854;28;20118;-70
2023/05/04 00:22:05;;;;;;;41.08;38.72;;;;;;;20.33;38.55;102103.41;4994623;28;20109;-68
2023/05/04 00:24:30;;;;;;;42.08;39.78;;;;;;;20.31;38.69;102106.47;4994523;28;20382;-68
2023/05/04 00:26:56;;;;;;;41.33;39.03;;;;;;;20.28;38.96;102104.25;4994984;28;20138;-68
2023/05/04 00:29:21;;;;;;;39.70;37.42;;;;;;;20.25;38.60;102101.22;4995193;28;20578;-68
2023/05/04 00:31:46;;;;;;;42.05;39.38;;;;;;;20.24;38.89;102099.59;4994415;28;20140;-68
2023/05/04 00:34:12;;;;;;;39.70;37.53;;;;;;;20.21;39.00;102097.38;4994174;28;20038;-69
2023/05/04 00:36:38;;;;;;;41.63;39.00;;;;;;;20.17;38.60;102094.38;4994764;28;20034;-69
2023/05/04 00:39:04;;;;;;;38.40;36.08;;;;;;;20.16;38.75;102098.22;4994373;28;20387;-69
2023/05/04 00:41:29;;;;;;;39.70;37.33;;;;;;;20.15;38.41;102093.00;4994303;28;20066;-68
2023/05/04 00:43:54;;;;;;;39.92;37.50;;;;;;;20.11;38.80;102095.50;4977233;28;20109;-68
2023/05/04 00:46:21;;;;;;;39.17;36.78;;;;;;;20.09;39.05;102090.25;4994225;28;20038;-69
2023/05/04 00:48:48;;;;;;;40.38;37.97;;;;;;;20.07;38.49;102091.63;4994135;28;20030;-68
2023/05/04 00:51:15;;;;;;;40.20;37.83;;;;;;;20.04;38.79;102083.97;4994177;28;20062;-68
2023/05/04 00:53:41;;;;;;;41.55;39.05;;;;;;;20.02;38.82;102086.16;4994109;28;20566;-68
2023/05/04 00:56:07;;;;;;;38.45;36.22;;;;;;;20.00;38.64;102083.66;4993874;28;20026;-69
2023/05/04 00:58:33;;;;;;;38.85;36.35;;;;;;;19.98;38.68;102082.28;4994073;28;20038;-69
2023/05/04 01:01:02;;;;;;;38.40;36.22;;;;;;;19.95;38.44;102082.84;4994003;28;20030;-68
2023/05/04 01:03:28;;;;;;;35.70;33.67;;;;;;;19.92;38.54;102078.72;4993645;28;20057;-68
2023/05/04 01:06:05;;;;;;;40.33;37.92;;;;;;;19.89;38.50;102071.06;4994015;28;20038;-68
2023/05/04 01:08:34;;;;;;;39.90;37.70;;;;;;;19.85;38.82;102076.25;4994050;28;20475;-68
2023/05/04 01:11:29;;;;;;;38.03;35.70;;;;;;;19.81;38.42;102069.69;4994162;28;20117;-68
2023/05/04 01:13:55;;;;;;;38.75;36.40;;;;;;;19.78;38.52;102075.72;4994185;28;20045;-69
2023/05/04 01:16:21;;;;;;;38.00;35.97;;;;;;;19.77;38.56;102067.75;4976851;28;20446;-68
2023/05/04 01:18:46;;;;;;;39.10;36.30;;;;;;;19.74;38.57;102071.03;4996305;28;20026;-68
2023/05/04 01:21:11;;;;;;;37.08;35.08;;;;;;;19.72;38.69;102065.81;4997691;28;20054;-68
2023/05/04 01:23:37;;;;;;;36.75;34.75;;;;;;;19.70;39.08;102062.53;4998060;28;20034;-68
2023/05/04 01:26:22;;;;;;;39.35;36.85;;;;;;;19.69;38.92;102060.88;4998116;28;20414;-68
2023/05/04 01:28:53;;;;;;;39.15;36.83;;;;;;;19.64;38.85;102050.72;4997764;28;20090;-68
2023/05/04 01:31:22;;;;;;;38.88;36.53;;;;;;;19.62;38.97;102052.06;4998089;28;20026;-69
2023/05/04 01:33:50;;;;;;;37.45;35.15;;;;;;;19.60;38.69;102054.25;4997698;28;20030;-68
2023/05/04 01:36:15;;;;;;;38.08;35.80;;;;;;;19.59;38.81;102058.09;4997909;28;20034;-68
2023/05/04 01:38:44;;;;;;;36.53;34.30;;;;;;;19.55;38.86;102054.25;4997503;28;20037;-70
2023/05/04 01:41:09;;;;;;;36.85;34.75;;;;;;;19.54;38.94;102055.34;4997677;28;20042;-68
2023/05/04 01:43:34;;;;;;;35.33;33.17;;;;;;;19.51;38.62;102058.66;4980165;28;20041;-68
2023/05/04 01:46:00;;;;;;;35.30;33.30;;;;;;;19.49;38.37;102055.34;4997159;28;20045;-68
2023/05/04 01:48:25;;;;;;;35.47;33.47;;;;;;;19.45;38.58;102052.31;4980745;28;20410;-68
2023/05/04 01:50:51;;;;;;;37.03;34.92;;;;;;;19.44;38.46;102059.72;4997541;28;20378;-68
2023/05/04 01:53:16;;;;;;;38.13;35.63;;;;;;;19.42;38.79;102050.13;4997071;28;20081;-68
2023/05/04 01:55:41;;;;;;;35.85;33.58;;;;;;;19.40;38.60;102041.34;4979963;28;20038;-69
2023/05/04 01:58:07;;;;;;;36.95;34.90;;;;;;;19.37;38.28;102044.63;4997226;28;20041;-68
2023/05/04 02:00:32;;;;;;;34.40;32.47;;;;;;;19.34;38.33;102040.50;4997767;28;20378;-68
2023/05/04 02:02:58;;;;;;;36.72;34.67;;;;;;;19.32;38.54;102052.81;4997010;28;20076;-68
2023/05/04 02:05:23;;;;;;;35.83;33.78;;;;;;;19.30;38.59;102057.75;4980458;28;20038;-68
2023/05/04 02:07:48;;;;;;;36.70;34.33;;;;;;;19.27;38.61;102050.91;4997042;28;20186;-68
2023/05/04 02:10:14;;;;;;;35.25;33.15;;;;;;;19.25;38.66;102039.38;4979946;28;20414;-67
2023/05/04 02:12:41;;;;;;;37.17;34.78;;;;;;;19.22;38.46;102037.19;4980109;28;20387;-68
2023/05/04 02:15:07;;;;;;;36.33;33.63;;;;;;;19.19;38.74;102033.06;4980281;28;20073;-68
2023/05/04 02:17:33;;;;;;;33.55;31.55;;;;;;;19.18;38.62;102038.84;4996787;28;20061;-68
2023/05/04 02:19:58;;;;;;;37.13;34.78;;;;;;;19.15;38.62;102036.59;4997052;28;20491;-68
2023/05/04 02:22:23;;;;;;;35.38;33.28;;;;;;;19.12;38.55;102035.22;4997360;28;20109;-67
2023/05/04 02:24:49;;;;;;;35.58;33.65;;;;;;;19.11;38.82;102043.72;4996392;28;20034;-68
2023/05/04 02:27:14;;;;;;;35.42;33.17;;;;;;;19.07;38.63;102035.22;4997284;28;20473;-68
2023/05/04 02:29:40;;;;;;;34.95;33.05;;;;;;;19.06;38.94;102039.06;4979208;28;20045;-68
2023/05/04 02:32:05;;;;;;;36.28;34.38;;;;;;;19.03;38.56;102037.69;4996591;28;20058;-67
2023/05/04 02:34:30;;;;;;;34.90;32.80;;;;;;;19.00;38.81;102032.75;4996642;28;20089;-68
2023/05/04 02:36:56;;;;;;;35.38;33.22;;;;;;;18.98;38.54;102032.19;4979147;28;20458;-68
2023/05/04 02:39:21;;;;;;;34.25;32.10;;;;;;;18.96;39.02;102025.31;4996599;28;20058;-68
2023/05/04 02:41:46;;;;;;;35.13;33.20;;;;;;;18.94;39.02;102027.50;4996364;28;20037;-70
2023/05/04 02:44:12;;;;;;;34.28;32.30;;;;;;;18.93;38.65;102028.59;4996668;28;20038;-68
2023/05/04 02:46:37;;;;;;;33.65;31.75;;;;;;;18.90;38.71;102024.50;4979538;28;20066;-68
2023/05/04 02:49:03;;;;;;;35.08;32.78;;;;;;;18.88;38.76;102025.84;4996343;28;20062;-68
2023/05/04 02:51:28;;;;;;;34.45;32.40;;;;;;;18.86;38.85;102026.09;4996299;28;20476;-68
2023/05/04 02:53:53;;;;;;;37.08;34.83;;;;;;;18.83;38.75;102029.38;4996149;28;20037;-68
2023/05/04 02:56:19;;;;;;;35.50;33.42;;;;;;;18.80;38.73;102011.56;4996720;28;20435;-68
2023/05/04 02:58:44;;;;;;;32.58;30.70;;;;;;;18.78;38.83;102015.66;4995918;28;20038;-69
2023/05/04 03:01:10;;;;;;;33.63;31.65;;;;;;;18.75;38.90;102022.50;4995818;28;20490;-68
2023/05/04 03:03:35;;;;;;;34.70;32.42;;;;;;;18.73;39.05;102026.56;4996523;28;20030;-68
2023/05/04 03:06:01;;;;;;;36.55;34.20;;;;;;;18.72;38.92;102022.16;4995855;28;20034;-68
2023/05/04 03:08:28;;;;;;;34.05;32.05;;;;;;;18.70;39.02;102018.91;4996725;28;20034;-68
2023/05/04 03:10:53;;;;;;;36.22;33.83;;;;;;;18.67;39.09;102016.66;4996265;28;20030;-68
2023/05/04 03:13:19;;;;;;;35.55;33.45;;;;;;;18.64;38.78;102012.53;4995584;28;20042;-67
2023/05/04 03:15:44;;;;;;;33.63;31.63;;;;;;;18.63;38.86;102012.84;4995820;28;20113;-68
2023/05/04 03:18:09;;;;;;;35.95;33.80;;;;;;;18.60;38.75;102003.25;4995887;28;20030;-68
2023/05/04 03:20:35;;;;;;;34.63;32.63;;;;;;;18.59;38.94;102007.03;4995910;28;20085;-68
2023/05/04 03:23:01;;;;;;;34.58;32.63;;;;;;;18.56;39.02;102000.19;4996144;28;20050;-68
2023/05/04 03:25:26;;;;;;;35.35;32.95;;;;;;;18.53;39.09;102000.72;4996139;28;20505;-68
2023/05/04 03:27:51;;;;;;;34.17;31.95;;;;;;;18.51;39.03;101999.34;4995543;28;20027;-69
2023/05/04 03:30:17;;;;;;;34.25;32.03;;;;;;;18.51;39.25;102002.09;4996158;28;20415;-68
2023/05/04 03:32:43;;;;;;;33.78;31.73;;;;;;;18.47;39.27;101993.59;4978619;28;20038;-69
2023/05/04 03:35:08;;;;;;;34.00;31.95;;;;;;;18.45;39.28;101992.22;4995422;28;20038;-68
2023/05/04 03:37:34;;;;;;;34.33;32.38;;;;;;;18.42;39.06;101990.84;4995406;28;20037;-67
2023/05/04 03:40:00;;;;;;;34.92;32.65;;;;;;;18.41;38.84;101989.16;4995181;28;20092;-68
2023/05/04 03:42:25;;;;;;;33.40;31.15;;;;;;;18.38;39.18;101990.53;4978453;28;20117;-68
2023/05/04 03:44:50;;;;;;;33.75;31.67;;;;;;;18.36;39.02;101989.97;4977831;28;20121;-67
2023/05/04 03:47:16;;;;;;;33.28;31.38;;;;;;;18.35;39.36;101987.50;4978209;28;20462;-68
2023/05/04 03:49:41;;;;;;;33.47;31.58;;;;;;;18.33;38.90;101984.22;4995030;28;20061;-68
2023/05/04 03:52:06;;;;;;;35.90;33.50;;;;;;;18.30;39.07;101980.09;4995273;28;20081;-68
2023/05/04 03:54:32;;;;;;;34.13;32.20;;;;;;;18.29;39.36;101980.34;4995380;28;20125;-68
2023/05/04 03:56:57;;;;;;;34.75;32.75;;;;;;;18.26;39.29;101978.97;4994746;28;20085;-68
2023/05/04 03:59:23;;;;;;;33.00;31.10;;;;;;;18.25;39.07;101981.97;4994737;28;20042;-68
2023/05/04 04:01:48;;;;;;;34.30;32.10;;;;;;;18.22;39.58;101983.34;4995418;28;20118;-68
2023/05/04 04:04:14;;;;;;;33.80;31.70;;;;;;;18.19;39.48;101978.38;4994921;28;20041;-67
2023/05/04 04:06:39;;;;;;;34.67;32.58;;;;;;;18.17;39.08;101978.66;4994557;28;20057;-68
2023/05/04 04:09:04;;;;;;;35.38;33.38;;;;;;;18.16;39.16;101978.91;4994812;28;20475;-67
2023/05/04 04:11:30;;;;;;;33.58;31.45;;;;;;;18.14;39.53;101975.59;4994537;28;20157;-68
2023/05/04 04:13:55;;;;;;;32.85;30.98;;;;;;;18.12;39.23;101967.69;4994971;28;20035;-68
2023/05/04 04:16:21;;;;;;;34.08;32.08;;;;;;;18.09;39.28;101976.41;4977091;28;20067;-68
2023/05/04 04:18:47;;;;;;;34.53;32.53;;;;;;;18.07;39.50;101970.38;4995024;28;20030;-68
2023/05/04 04:21:12;;;;;;;35.22;33.13;;;;;;;18.06;39.31;101976.09;4977672;28;20065;-68
2023/05/04 04:23:38;;;;;;;33.67;31.67;;;;;;;18.04;39.48;101970.06;4994896;28;20410;-67
2023/05/04 04:26:05;;;;;;;33.90;31.73;;;;;;;18.02;39.61;101975.00;4994726;28;20034;-68
2023/05/04 04:28:33;;;;;;;32.55;30.52;;;;;;;18.00;39.35;101972.50;4994547;28;20065;-67
2023/05/04 04:30:59;;;;;;;31.67;29.92;;;;;;;17.98;39.48;101973.84;4994183;28;20041;-68
2023/05/04 04:33:25;;;;;;;32.88;31.00;;;;;;;17.95;39.40;101967.00;4994399;28;20038;-68
2023/05/04 04:35:51;;;;;;;33.72;31.60;;;;;;;17.93;39.43;101967.25;4994410;28;20089;-68
2023/05/04 04:38:17;;;;;;;32.65;30.75;;;;;;;17.92;39.66;101964.81;4993930;28;20117;-68
2023/05/04 04:40:42;;;;;;;33.88;31.67;;;;;;;17.90;39.94;101975.16;4976935;28;20043;-68
2023/05/04 04:43:08;;;;;;;33.58;31.58;;;;;;;17.87;39.77;101965.59;4994390;28;20352;-68
2023/05/04 04:45:34;;;;;;;33.28;31.33;;;;;;;17.85;39.58;101965.03;4994014;28;20089;-68
2023/05/04 04:48:00;;;;;;;34.17;32.00;;;;;;;17.83;39.65;101960.91;4994171;28;20073;-69
2023/05/04 04:50:26;;;;;;;31.00;29.23;;;;;;;17.83;39.33;101958.16;4994227;28;20455;-68
2023/05/04 04:52:51;;;;;;;35.50;33.35;;;;;;;17.80;39.34;101964.97;4959752;28;20058;-68
2023/05/04 04:55:17;;;;;;;31.08;29.33;;;;;;;17.79;39.66;101971.50;4976665;28;20125;-68
2023/05/04 04:57:42;;;;;;;31.30;29.27;;;;;;;17.77;39.22;101961.94;4994600;28;20121;-68
2023/05/04 05:00:13;;;;;;;33.40;31.30;;;;;;;17.75;39.67;101970.38;4976658;28;20040;-68
2023/05/04 05:02:38;;;;;;;32.80;30.85;;;;;;;17.73;39.66;101973.34;4994370;28;20117;-68
2023/05/04 05:05:04;;;;;;;33.28;31.20;;;;;;;17.71;39.55;101978.28;4994120;28;20432;-68
2023/05/04 05:07:31;;;;;;;31.27;29.10;;;;;;;17.69;39.51;101972.25;4994257;28;20490;-68
2023/05/04 05:09:56;;;;;;;32.13;30.10;;;;;;;17.68;39.71;101976.03;4994016;28;20037;-68
2023/05/04 05:12:22;;;;;;;32.67;30.80;;;;;;;17.66;39.50;101980.94;4993904;28;20117;-68
2023/05/04 05:14:49;;;;;;;31.55;29.55;;;;;;;17.65;39.52;101976.56;4976518;28;20038;-68
2023/05/04 05:17:15;;;;;;;33.17;30.90;;;;;;;17.64;39.79;101977.66;4993968;28;20451;-68
2023/05/04 05:19:40;;;;;;;34.53;32.22;;;;;;;17.62;39.79;101968.91;4994177;28;20069;-68
2023/05/04 05:22:05;;;;;;;30.85;29.13;;;;;;;17.61;39.54;101974.63;4994023;28;20050;-68
2023/05/04 05:24:31;;;;;;;31.77;29.85;;;;;;;17.60;39.40;101979.25;4994035;28;20362;-68
2023/05/04 05:26:57;;;;;;;31.80;29.77;;;;;;;17.58;39.91;101978.69;4994039;28;20026;-69
2023/05/04 05:29:23;;;;;;;31.10;29.30;;;;;;;17.57;39.57;101981.69;4994058;28;20034;-69
2023/05/04 05:31:48;;;;;;;31.77;29.60;;;;;;;17.54;39.34;101974.84;4993850;28;20030;-68
2023/05/04 05:34:14;;;;;;;34.35;32.05;;;;;;;17.53;39.46;101968.53;4993985;28;20038;-69
2023/05/04 05:36:39;;;;;;;32.22;30.33;;;;;;;17.52;39.75;101966.09;4993757;28;20436;-68
2023/05/04 05:39:05;;;;;;;31.02;29.17;;;;;;;17.51;39.61;101968.00;4993671;28;20468;-68
2023/05/04 05:41:30;;;;;;;30.88;28.95;;;;;;;17.49;39.60;101963.88;4994213;28;20038;-68
2023/05/04 05:43:55;;;;;;;31.63;29.83;;;;;;;17.47;39.70;101955.94;4976005;28;20035;-68
2023/05/04 05:46:21;;;;;;;33.95;31.63;;;;;;;17.47;39.66;101963.31;4994013;28;20061;-68
2023/05/04 05:48:47;;;;;;;29.98;28.27;;;;;;;17.46;39.71;101964.38;4993926;28;20045;-68
2023/05/04 05:51:13;;;;;;;33.78;31.40;;;;;;;17.46;39.65;101961.63;4993671;28;20062;-68
2023/05/04 05:53:38;;;;;;;29.75;27.88;;;;;;;17.43;39.82;101954.78;4993859;28;20125;-68
2023/05/04 05:56:04;;;;;;;30.10;28.15;;;;;;;17.41;39.71;101956.97;4993502;28;20458;-69
2023/05/04 05:58:30;;;;;;;29.85;28.02;;;;;;;17.41;39.92;101954.25;4976294;28;20030;-68
2023/05/04 06:00:55;;;;;;;31.45;29.50;;;;;;;17.40;39.58;101957.22;4993172;28;20066;-66
2023/05/04 06:03:20;;;;;;;31.92;29.63;;;;;;;17.41;39.78;101956.13;4993891;28;20110;-69
2023/05/04 06:05:46;;;;;;;31.05;29.25;;;;;;;17.39;39.93;101950.13;4979792;28;20030;-69
2023/05/04 06:08:11;;;;;;;30.90;28.80;;;;;;;17.38;40.07;101943.00;4980198;28;20042;-69
2023/05/04 06:10:37;;;;;;;31.67;29.75;;;;;;;17.38;39.98;101948.47;4979470;28;20081;-67
2023/05/04 06:13:02;;;;;;;30.85;28.80;;;;;;;17.37;39.76;101941.38;4979399;28;20474;-67
2023/05/04 06:15:27;;;;;;;30.58;28.77;;;;;;;17.35;39.55;101940.78;4979954;28;20096;-67
2023/05/04 06:17:53;;;;;;;30.25;28.45;;;;;;;17.36;40.02;101942.44;4979504;28;20490;-67
2023/05/04 06:20:18;;;;;;;30.85;28.95;;;;;;;17.34;39.85;101945.44;4996790;28;20034;-68
2023/05/04 06:22:43;;;;;;;32.53;30.38;;;;;;;17.34;39.94;101941.84;4997382;28;20058;-67
2023/05/04 06:25:10;;;;;;;34.10;31.90;;;;;;;17.33;40.06;101937.50;4996701;28;20111;-69
2023/05/04 06:27:35;;;;;;;31.92;30.02;;;;;;;17.32;39.90;101936.69;4996713;28;20027;-67
2023/05/04 06:30:01;;;;;;;31.10;28.77;;;;;;;17.31;40.11;101929.53;4997317;28;20031;-67
2023/05/04 06:32:27;;;;;;;31.98;29.80;;;;;;;17.29;39.85;101924.38;4978834;28;20022;-67
2023/05/04 06:34:54;;;;;;;29.15;27.45;;;;;;;17.30;40.08;101925.19;4996752;28;20147;-68
2023/05/04 06:37:20;;;;;;;32.72;30.65;;;;;;;17.30;40.32;101927.91;4996556;28;20042;-68
2023/05/04 06:39:45;;;;;;;31.27;28.98;;;;;;;17.29;40.23;101920.81;4979093;28;20060;-68
2023/05/04 06:42:11;;;;;;;32.08;30.08;;;;;;;17.29;40.16;101915.34;4996832;28;20041;-69
2023/05/04 06:44:39;;;;;;;32.47;30.33;;;;;;;17.28;39.88;101909.03;4996670;28;20382;-68
2023/05/04 06:47:06;;;;;;;30.33;28.38;;;;;;;17.28;40.06;101911.78;4979448;28;20112;-68
2023/05/04 06:49:32;;;;;;;31.67;29.55;;;;;;;17.27;40.04;101907.41;4996555;28;20034;-68
2023/05/04 06:51:57;;;;;;;30.05;28.20;;;;;;;17.28;39.80;101908.22;4996092;28;20038;-71
2023/05/04 06:54:23;;;;;;;34.10;31.98;;;;;;;17.27;39.98;101907.41;4996170;28;20398;-68
2023/05/04 06:56:48;;;;;;;30.52;28.40;;;;;;;17.27;40.03;101896.47;4978763;28;20520;-68
2023/05/04 06:59:15;;;;;;;31.27;29.00;;;;;;;17.27;40.04;101898.41;4996177;28;20030;-69
2023/05/04 07:01:41;;;;;;;28.30;26.60;;;;;;;17.27;40.26;101895.66;4996109;28;20470;-69
2023/05/04 07:04:06;;;;;;;31.00;28.88;;;;;;;17.27;39.94;101895.66;4996020;28;20158;-70
2023/05/04 07:06:32;;;;;;;32.38;29.85;;;;;;;17.28;40.48;101891.84;4996252;28;20132;-67
2023/05/04 07:08:58;;;;;;;29.40;27.55;;;;;;;17.28;40.17;101884.47;4995694;28;20041;-68
2023/05/04 07:11:23;;;;;;;31.25;29.35;;;;;;;17.29;39.88;101890.78;4995890;28;20038;-68
2023/05/04 07:13:49;;;;;;;29.45;27.65;;;;;;;17.30;40.37;101892.41;4978366;28;20038;-67
2023/05/04 07:16:14;;;;;;;31.77;29.75;;;;;;;17.29;40.39;101886.13;4994686;28;20030;-70
2023/05/04 07:18:40;;;;;;;31.63;29.52;;;;;;;17.30;40.05;101886.94;4995627;28;20364;-67
2023/05/04 07:21:12;;;;;;;30.70;28.92;;;;;;;17.30;40.38;101890.50;4995338;28;20497;-69
2023/05/04 07:23:38;;;;;;;32.85;30.25;;;;;;;17.32;40.11;101897.63;4995672;28;20370;-68
2023/05/04 07:26:03;;;;;;;30.33;28.30;;;;;;;17.32;40.49;101894.88;4995482;28;20447;-68
2023/05/04 07:28:29;;;;;;;31.48;29.50;;;;;;;17.32;40.49;101889.44;4978027;28;20466;-67
2023/05/04 07:30:54;;;;;;;31.80;29.77;;;;;;;17.33;40.55;101891.88;4995777;28;20119;-68
2023/05/04 07:33:20;;;;;;;31.92;29.50;;;;;;;17.35;40.55;101891.63;4978264;28;20176;-67
2023/05/04 07:35:45;;;;;;;31.00;29.00;;;;;;;17.36;40.20;101894.13;4995604;28;20085;-68
2023/05/04 07:38:11;;;;;;;30.60;28.75;;;;;;;17.39;40.22;101900.97;4995294;28;20491;-68
2023/05/04 07:40:36;;;;;;;30.23;28.40;;;;;;;17.39;40.32;101893.59;4995196;28;20030;-69
2023/05/04 07:43:01;;;;;;;30.63;28.75;;;;;;;17.41;40.39;101893.31;4995469;28;20390;-67
2023/05/04 07:45:27;;;;;;;31.38;29.50;;;;;;;17.42;40.60;101892.25;4994936;28;20080;-68
2023/05/04 07:47:52;;;;;;;30.20;28.60;;;;;;;17.42;40.81;101887.59;4995161;28;20031;-68
2023/05/04 07:50:18;;;;;;;30.73;28.42;;;;;;;17.44;40.39;101879.97;4977636;28;20026;-69
2023/05/04 07:52:45;;;;;;;33.85;31.65;;;;;;;17.46;40.64;101882.44;4995033;28;20034;-70
2023/05/04 07:55:10;;;;;;;29.83;28.08;;;;;;;17.48;40.76;101878.34;4995007;28;20045;-70
2023/05/04 07:57:36;;;;;;;30.38;28.67;;;;;;;17.50;40.57;101875.38;4994896;28;20030;-71
2023/05/04 08:00:04;;;;;;;32.58;30.33;;;;;;;17.51;40.76;101869.66;4994986;28;20030;-67
2023/05/04 08:02:29;;;;;;;31.63;29.63;;;;;;;17.55;40.80;101861.75;4977600;28;20038;-67
2023/05/04 08:04:55;;;;;;;30.42;28.67;;;;;;;17.59;40.78;101856.56;4977811;28;20035;-68
2023/05/04 08:07:21;;;;;;;31.13;29.15;;;;;;;17.61;40.94;101843.47;4994941;28;20030;-68
2023/05/04 08:09:47;;;;;;;30.63;28.77;;;;;;;17.66;40.73;101851.69;4977410;28;20034;-71
2023/05/04 08:12:12;;;;;;;31.17;29.17;;;;;;;17.69;40.88;101852.00;4994574;28;20035;-70
2023/05/04 08:14:39;;;;;;;31.98;29.58;;;;;;;17.71;41.13;101846.28;4977038;28;20081;-69
2023/05/04 08:17:05;;;;;;;29.85;28.08;;;;;;;17.74;40.81;101841.13;4994187;28;20389;-71
2023/05/04 08:19:30;;;;;;;33.47;31.30;;;;;;;17.78;41.34;101838.66;4994325;28;20034;-68
2023/05/04 08:21:55;;;;;;;30.98;29.08;;;;;;;17.82;41.13;101839.81;4994867;28;20050;-69
2023/05/04 08:24:21;;;;;;;33.35;30.92;;;;;;;17.86;40.92;101840.09;4994789;28;20455;-70
2023/05/04 08:26:46;;;;;;;32.72;30.42;;;;;;;17.89;41.20;101837.69;4994373;28;20065;-69
2023/05/04 08:29:11;;;;;;;32.90;30.77;;;;;;;17.93;41.19;101832.50;4976980;28;20030;-70
2023/05/04 08:31:39;;;;;;;35.25;32.85;;;;;;;17.97;41.04;101833.63;4994172;28;20041;-69
2023/05/04 08:34:05;;;;;;;31.40;29.48;;;;;;;18.02;41.20;101832.81;4977043;28;20031;-67
2023/05/04 08:36:30;;;;;;;33.78;31.23;;;;;;;18.07;40.83;101822.72;4994688;28;20478;-67
2023/05/04 08:38:56;;;;;;;32.95;30.90;;;;;;;18.11;40.88;101823.00;4976717;28;20045;-69
2023/05/04 08:41:22;;;;;;;32.40;30.40;;;;;;;18.15;40.90;101813.19;4976668;28;20034;-70
2023/05/04 08:43:48;;;;;;;34.13;31.77;;;;;;;18.20;40.93;101818.69;4993367;28;20034;-68
2023/05/04 08:46:15;;;;;;;32.10;30.20;;;;;;;18.26;40.86;101820.31;4993807;28;20117;-69
2023/05/04 08:48:43;;;;;;;35.05;32.55;;;;;;;18.29;41.08;101814.31;4993880;28;20034;-68
2023/05/04 08:51:09;;;;;;;33.83;31.63;;;;;;;18.34;41.47;101811.63;4994255;28;20360;-68
2023/05/04 08:53:39;;;;;;;35.05;32.75;;;;;;;18.38;41.32;101807.25;4993836;28;20269;-69
2023/05/04 08:56:08;;;;;;;35.00;32.97;;;;;;;18.45;41.34;101803.44;4976967;28;20037;-70
2023/05/04 08:58:36;;;;;;;34.55;32.30;;;;;;;18.49;41.32;101813.56;4993875;28;20513;-69
2023/05/04 09:01:03;;;;;;;33.13;31.02;;;;;;;18.54;41.14;101808.09;4993863;28;20471;-67
2023/05/04 09:03:29;;;;;;;34.83;32.72;;;;;;;18.59;41.29;101801.81;4993891;28;20136;-69
2023/05/04 09:05:55;;;;;;;32.92;30.83;;;;;;;18.65;41.41;101802.63;4993782;28;20466;-69
2023/05/04 09:08:21;;;;;;;34.30;32.05;;;;;;;18.70;41.15;101797.19;4976877;28;20039;-72
2023/05/04 09:10:47;;;;;;;33.97;31.92;;;;;;;18.76;41.02;101801.59;4976590;28;20036;-73
2023/05/04 09:13:12;;;;;;;34.40;32.30;;;;;;;18.81;41.25;101796.13;4977122;28;20038;-77
2023/05/04 09:15:37;;;;;;;38.00;35.55;;;;;;;18.87;40.98;101788.75;4993660;28;20039;-73
2023/05/04 09:18:05;;;;;;;34.03;32.05;;;;;;;18.94;40.92;101792.03;4994222;28;20522;-65
2023/05/04 09:20:42;;;;;;;40.70;37.75;;;;;;;18.99;40.83;101787.38;4993269;28;20128;-70
2023/05/04 09:23:08;;;;;;;35.45;33.20;;;;;;;19.07;41.08;101791.47;4975664;28;20046;-70
2023/05/04 09:25:51;;;;;;;37.58;35.22;;;;;;;19.13;41.04;101789.59;4993416;28;20046;-70
2023/05/04 09:28:19;;;;;;;34.92;32.83;;;;;;;19.20;40.89;101790.09;4993763;28;20026;-70
2023/05/04 09:30:47;;;;;;;38.85;36.30;;;;;;;19.27;40.72;101789.84;4993102;28;20391;-73
2023/05/04 09:33:12;;;;;;;36.70;34.40;;;;;;;19.34;40.75;101790.38;4976150;28;20038;-72
2023/05/04 09:35:40;;;;;;;35.38;33.28;;;;;;;19.41;40.88;101789.00;4993551;28;20035;-71
2023/05/04 09:38:06;;;;;;;37.00;34.25;;;;;;;19.46;40.98;101797.22;4993846;28;20072;-72
2023/05/04 09:40:35;;;;;;;40.13;37.42;;;;;;;19.54;41.01;101795.81;4996696;28;20366;-73
2023/05/04 09:43:01;;;;;;;38.42;36.05;;;;;;;19.62;40.93;101786.22;4997588;28;20026;-73
2023/05/04 09:45:40;;;;;;;38.20;35.58;;;;;;;19.68;41.26;101774.19;4997408;28;20034;-72
2023/05/04 09:48:18;;;;;;;37.50;35.30;;;;;;;19.75;41.08;101771.94;4997385;28;20158;-70
2023/05/04 09:50:57;;;;;;;41.20;38.35;;;;;;;19.80;41.59;101771.91;4997189;28;20117;-71
2023/05/04 09:53:24;;;;;;;37.58;35.38;;;;;;;19.87;41.35;101760.66;4997542;28;20038;-74
2023/05/04 09:56:12;;;;;;;37.25;35.15;;;;;;;19.95;41.29;101762.00;4997344;28;20026;-74
2023/05/04 09:58:39;;;;;;;40.22;37.53;;;;;;;20.01;41.56;101758.97;4997102;28;20038;-73
2023/05/04 10:01:05;;;;;;;38.30;35.97;;;;;;;20.08;41.60;101748.50;4997586;28;20166;-71
2023/05/04 10:03:32;;;;;;;41.10;38.53;;;;;;;20.14;41.70;101741.06;4996651;28;20045;-73
2023/05/04 10:05:59;;;;;;;38.58;36.47;;;;;;;20.23;41.30;101735.78;4997002;28;20027;-72
2023/05/04 10:08:25;;;;;;;39.83;37.53;;;;;;;20.29;41.79;101738.22;4997003;28;20043;-71
2023/05/04 10:10:51;;;;;;;41.20;38.60;;;;;;;20.37;41.37;101709.38;4979440;28;20449;-72
2023/05/04 10:13:16;;;;;;;39.28;36.88;;;;;;;20.44;41.62;101715.34;4997208;28;20114;-72
2023/05/04 10:16:17;;;;;;;44.33;41.50;;;;;;;20.50;41.39;101703.22;4963392;28;20105;-72
2023/05/04 10:19:16;;;;;;;43.30;40.50;;;;;;;20.59;41.53;101703.47;4971099;28;20070;-72
2023/05/04 10:21:48;;;;;;;42.17;39.55;;;;;;;20.66;41.64;101698.47;4996692;28;20035;-72
2023/05/04 10:24:50;;;;;;;43.25;40.55;;;;;;;20.72;41.74;101694.56;4979705;28;20042;-70
2023/05/04 10:27:51;;;;;;;41.38;38.50;;;;;;;20.80;41.73;101692.31;4996493;28;20026;-70
2023/05/04 10:30:19;;;;;;;40.67;38.17;;;;;;;20.87;41.82;101688.13;4966587;28;20050;-73
2023/05/04 10:32:45;;;;;;;44.15;41.35;;;;;;;20.95;41.58;101681.19;4979078;28;20034;-70
2023/05/04 10:35:10;;;;;;;44.65;42.17;;;;;;;21.02;41.50;101673.44;4996658;28;20037;-70
2023/05/04 10:37:36;;;;;;;43.10;40.55;;;;;;;21.09;41.29;101665.66;4996518;28;20057;-69
2023/05/04 10:40:04;;;;;;;44.78;41.97;;;;;;;21.17;41.54;101670.53;4996596;28;20130;-69
2023/05/04 10:42:41;;;;;;;43.42;40.55;;;;;;;21.24;41.32;101656.41;4996838;28;20035;-70
2023/05/04 10:45:08;;;;;;;43.55;40.97;;;;;;;21.32;41.27;101654.97;4996625;28;20158;-70
2023/05/04 10:47:35;;;;;;;46.67;43.40;;;;;;;21.38;41.40;101645.53;4996914;28;20058;-72
2023/05/04 10:50:09;;;;;;;40.80;38.45;;;;;;;21.46;41.22;101644.09;4996409;28;20057;-69
2023/05/04 10:52:48;;;;;;;45.38;42.45;;;;;;;21.52;41.25;101642.91;4996657;28;20026;-70
2023/05/04 10:55:14;;;;;;;41.13;39.13;;;;;;;21.57;41.41;101643.69;4996658;28;20474;-68
2023/05/04 10:57:54;;;;;;;44.88;42.20;;;;;;;21.63;41.36;101641.69;4996690;28;20039;-72
2023/05/04 11:00:20;;;;;;;43.67;41.00;;;;;;;21.70;41.20;101638.59;4978970;28;20374;-69
2023/05/04 11:02:47;;;;;;;47.53;44.70;;;;;;;21.76;40.93;101640.13;4996101;28;20034;-70
2023/05/04 11:05:18;;;;;;;45.05;42.45;;;;;;;21.81;40.65;101632.63;4996038;28;20030;-70
2023/05/04 11:07:44;;;;;;;44.50;41.90;;;;;;;21.89;41.13;101627.56;4996103;28;20034;-70